| time (UTC) | temp F | wind direction | speed MPH | gust MPH | rain 1hr in | rain 24hr in | rain mn in | humidity % | barometer mb |
| 20260504205011 | 59 | 202 | 1.0 | 8.0 | 0.00 | 0.00 | 0.00 | 65 | 1011.8 |
| 20260504204519 | 59 | 311 | 2.0 | 8.0 | 0.00 | 0.00 | 0.00 | 64 | 1011.9 |
| 20260504204006 | 59 | 279 | 1.0 | 6.0 | 0.00 | 0.00 | 0.00 | 64 | 1011.9 |
| 20260504203505 | 60 | 275 | 2.0 | 8.0 | 0.00 | 0.00 | 0.00 | 64 | 1011.8 |
| 20260504203020 | 60 | 233 | 3.0 | 9.0 | 0.00 | 0.00 | 0.00 | 64 | 1011.8 |
| 20260504202506 | 59 | 266 | 2.0 | 11.0 | 0.00 | 0.00 | 0.00 | 63 | 1011.9 |
| 20260504202007 | 60 | 248 | 4.0 | 11.0 | 0.00 | 0.00 | 0.00 | 61 | 1011.8 |
| 20260504201520 | 60 | 222 | 2.0 | 8.0 | 0.00 | 0.00 | 0.00 | 61 | 1011.8 |
| 20260504201006 | 61 | 257 | 4.0 | 9.0 | 0.00 | 0.00 | 0.00 | 61 | 1011.9 |
| 20260504200510 | 61 | 244 | 2.0 | 9.0 | 0.00 | 0.00 | 0.00 | 60 | 1011.9 |
| 20260504200026 | 61 | 228 | 3.0 | 9.0 | 0.00 | 0.00 | 0.00 | 60 | 1012.0 |
| 20260504195509 | 61 | 260 | 2.0 | 9.0 | 0.00 | 0.00 | 0.00 | 59 | 1012.1 |
| 20260504195012 | 61 | 201 | 1.0 | 7.0 | 0.00 | 0.00 | 0.00 | 60 | 1012.0 |
| 20260504194508 | 61 | 267 | 2.0 | 10.0 | 0.00 | 0.00 | 0.00 | 59 | 1012.1 |
| 20260504194004 | 61 | 360 | 2.0 | 11.0 | 0.00 | 0.00 | 0.00 | 59 | 1012.1 |
| 20260504193505 | 62 | 305 | 4.0 | 11.0 | 0.00 | 0.00 | 0.00 | 57 | 1012.2 |
| 20260504193017 | 62 | 115 | 1.0 | 8.0 | 0.00 | 0.00 | 0.00 | 59 | 1012.1 |
| 20260504192505 | 62 | 241 | 2.0 | 8.0 | 0.00 | 0.00 | 0.00 | 57 | 1012.1 |
| 20260504192007 | 62 | 175 | 3.0 | 11.0 | 0.00 | 0.00 | 0.00 | 58 | 1012.0 |
| 20260504191521 | 62 | 261 | 4.0 | 11.0 | 0.00 | 0.00 | 0.00 | 57 | 1012.1 |
| 20260504191007 | 62 | 227 | 2.0 | 10.0 | 0.00 | 0.00 | 0.00 | 57 | 1012.3 |
| 20260504190507 | 62 | 334 | 1.0 | 9.0 | 0.00 | 0.00 | 0.00 | 58 | 1012.3 |
| 20260504190027 | 62 | 251 | 3.0 | 9.0 | 0.00 | 0.00 | 0.00 | 57 | 1012.4 |
| 20260504185512 | 62 | 313 | 3.0 | 6.0 | 0.00 | 0.00 | 0.00 | 57 | 1012.3 |
| 20260504185008 | 62 | 243 | 1.0 | 10.0 | 0.00 | 0.00 | 0.00 | 58 | 1012.4 |
| 20260504184510 | 63 | 309 | 2.0 | 10.0 | 0.00 | 0.00 | 0.00 | 57 | 1012.5 |
| 20260504184007 | 63 | 210 | 0.0 | 7.0 | 0.00 | 0.00 | 0.00 | 58 | 1012.5 |
| 20260504183507 | 62 | 252 | 1.0 | 9.0 | 0.00 | 0.00 | 0.00 | 58 | 1012.6 |
| 20260504183018 | 63 | 144 | 1.0 | 9.0 | 0.00 | 0.00 | 0.00 | 58 | 1012.7 |
| 20260504182508 | 63 | 227 | 1.0 | 9.0 | 0.00 | 0.00 | 0.00 | 57 | 1012.7 |
| 20260504182009 | 63 | 234 | 3.0 | 9.0 | 0.00 | 0.00 | 0.00 | 56 | 1012.8 |
| 20260504181523 | 63 | 172 | 2.0 | 9.0 | 0.00 | 0.00 | 0.00 | 56 | 1012.8 |
| 20260504181013 | 63 | 240 | 2.0 | 8.0 | 0.00 | 0.00 | 0.00 | 57 | 1012.8 |
| 20260504180510 | 63 | 332 | 2.0 | 10.0 | 0.00 | 0.00 | 0.00 | 56 | 1012.9 |
| 20260504180027 | 63 | 205 | 2.0 | 10.0 | 0.00 | 0.00 | 0.00 | 56 | 1013.0 |
| 20260504175504 | 63 | 234 | 2.0 | 7.0 | 0.00 | 0.00 | 0.00 | 57 | 1013.0 |
| 20260504175005 | 63 | 252 | 1.0 | 4.0 | 0.00 | 0.00 | 0.00 | 57 | 1013.0 |
| 20260504174518 | 62 | 232 | 1.0 | 9.0 | 0.00 | 0.00 | 0.00 | 58 | 1013.0 |
| 20260504174009 | 62 | 10 | 2.0 | 9.0 | 0.00 | 0.00 | 0.00 | 59 | 1013.0 |
| 20260504173508 | 62 | 19 | 2.0 | 9.0 | 0.00 | 0.00 | 0.00 | 61 | 1013.0 |
| 20260504173020 | 61 | 277 | 1.0 | 8.0 | 0.00 | 0.00 | 0.00 | 61 | 1013.3 |
| 20260504172508 | 62 | 238 | 1.0 | 7.0 | 0.00 | 0.00 | 0.00 | 61 | 1013.2 |
| 20260504172011 | 62 | 248 | 1.0 | 10.0 | 0.00 | 0.00 | 0.00 | 61 | 1013.1 |
| 20260504171526 | 61 | 197 | 1.0 | 10.0 | 0.00 | 0.00 | 0.00 | 59 | 1013.3 |
| 20260504171015 | 62 | 243 | 1.0 | 9.0 | 0.00 | 0.00 | 0.00 | 59 | 1013.3 |
| 20260504170511 | 62 | 223 | 2.0 | 11.0 | 0.00 | 0.00 | 0.00 | 59 | 1013.4 |
| 20260504151013 | 62 | 215 | 2.0 | 9.0 | 0.00 | 0.00 | 0.00 | 54 | 1014.3 |
| 20260504150508 | 62 | 182 | 1.0 | 6.0 | 0.00 | 0.00 | 0.00 | 54 | 1014.3 |
| 20260504141012 | 60 | 237 | 1.0 | 6.0 | 0.00 | 0.00 | 0.00 | 54 | 1014.4 |
| 20260504140507 | 59 | 252 | 1.0 | 7.0 | 0.00 | 0.00 | 0.00 | 54 | 1014.5 |
| 20260504130507 | 57 | 261 | 2.0 | 7.0 | 0.00 | 0.00 | 0.00 | 56 | 1015.0 |
| 20260504110509 | 52 | 284 | 0.0 | 1.0 | 0.00 | 0.00 | 0.00 | 63 | 1015.2 |
| 20260504100507 | 50 | 212 | 0.0 | 0.0 | 0.00 | 0.00 | 0.00 | 62 | 1014.9 |
| 20260504081525 | 48 | 319 | 0.0 | 0.0 | 0.00 | 0.00 | 0.00 | 62 | 1014.4 |
| 20260504081012 | 48 | 248 | 0.0 | 0.0 | 0.00 | 0.00 | 0.00 | 62 | 1014.4 |
| 20260504080511 | 48 | 286 | 0.0 | 0.0 | 0.00 | 0.00 | 0.00 | 62 | 1014.3 |
| 20260504050508 | 41 | 22 | 0.0 | 0.0 | 0.00 | 0.00 | 0.00 | 75 | 1013.3 |
| 20260504050022 | 41 | 22 | 0.0 | 0.0 | 0.00 | 0.00 | 0.00 | 75 | 1013.4 |
| 20260504045508 | 41 | 22 | 0.0 | 0.0 | 0.00 | 0.00 | 0.00 | 74 | 1013.4 |
| 20260504045008 | 41 | 298 | 0.0 | 0.0 | 0.00 | 0.00 | 0.00 | 74 | 1013.4 |
| 20260504044534 | 41 | 298 | 0.0 | 0.0 | 0.00 | 0.00 | 0.00 | 74 | 1013.4 |
| 20260504044010 | 41 | 298 | 0.0 | 0.0 | 0.00 | 0.00 | 0.00 | 74 | 1013.4 |
| 20260504043507 | 41 | 298 | 0.0 | 0.0 | 0.00 | 0.00 | 0.00 | 73 | 1013.4 |
| 20260504043026 | 41 | 298 | 0.0 | 0.0 | 0.00 | 0.00 | 0.00 | 73 | 1013.4 |
| 20260504042508 | 41 | 298 | 0.0 | 0.0 | 0.00 | 0.00 | 0.00 | 73 | 1013.4 |
| 20260504042011 | 41 | 298 | 0.0 | 0.0 | 0.00 | 0.00 | 0.00 | 72 | 1013.4 |
| 20260504041515 | 41 | 298 | 0.0 | 0.0 | 0.00 | 0.00 | 0.00 | 72 | 1013.3 |
| 20260504041007 | 41 | 298 | 0.0 | 0.0 | 0.00 | 0.00 | 0.00 | 71 | 1013.3 |
| 20260504040508 | 41 | 298 | 0.0 | 0.0 | 0.00 | 0.00 | 0.00 | 71 | 1013.3 |
| 20260504040021 | 41 | 298 | 0.0 | 0.0 | 0.00 | 0.00 | 0.00 | 71 | 1013.4 |
| 20260504035508 | 41 | 298 | 0.0 | 0.0 | 0.00 | 0.00 | 0.00 | 71 | 1013.3 |
| 20260504035004 | 42 | 298 | 0.0 | 0.0 | 0.00 | 0.00 | 0.00 | 69 | 1013.2 |
| 20260504034504 | 42 | 298 | 0.0 | 0.0 | 0.00 | 0.00 | 0.00 | 69 | 1013.2 |
| 20260504034005 | 42 | 298 | 0.0 | 0.0 | 0.00 | 0.00 | 0.00 | 69 | 1013.2 |
| 20260504033504 | 42 | 298 | 0.0 | 0.0 | 0.00 | 0.00 | 0.00 | 68 | 1013.3 |
| 20260504033010 | 42 | 298 | 0.0 | 0.0 | 0.00 | 0.00 | 0.00 | 68 | 1013.2 |
| 20260504032504 | 42 | 298 | 0.0 | 0.0 | 0.00 | 0.00 | 0.00 | 67 | 1013.2 |
| 20260504032006 | 43 | 298 | 0.0 | 0.0 | 0.00 | 0.00 | 0.00 | 67 | 1013.2 |
| 20260504031518 | 43 | 298 | 0.0 | 0.0 | 0.00 | 0.00 | 0.00 | 67 | 1013.2 |
| 20260504031008 | 43 | 298 | 0.0 | 0.0 | 0.00 | 0.00 | 0.00 | 66 | 1013.2 |
| 20260504030508 | 43 | 298 | 0.0 | 0.0 | 0.00 | 0.00 | 0.00 | 66 | 1013.2 |
| 20260504030024 | 43 | 298 | 0.0 | 0.0 | 0.00 | 0.00 | 0.00 | 66 | 1013.1 |
| 20260504025507 | 43 | 298 | 0.0 | 0.0 | 0.00 | 0.00 | 0.00 | 65 | 1013.1 |
| 20260504025004 | 43 | 298 | 0.0 | 0.0 | 0.00 | 0.00 | 0.00 | 65 | 1013.2 |
| 20260504024506 | 43 | 298 | 0.0 | 0.0 | 0.00 | 0.00 | 0.00 | 65 | 1013.1 |
| 20260504024004 | 43 | 298 | 0.0 | 0.0 | 0.00 | 0.00 | 0.00 | 64 | 1013.0 |
| 20260504023505 | 44 | 298 | 0.0 | 0.0 | 0.00 | 0.00 | 0.00 | 64 | 1013.1 |
| 20260504023012 | 44 | 298 | 0.0 | 0.0 | 0.00 | 0.00 | 0.00 | 63 | 1013.0 |
| 20260504022506 | 44 | 298 | 0.0 | 0.0 | 0.00 | 0.00 | 0.00 | 62 | 1013.0 |
| 20260504022008 | 44 | 298 | 0.0 | 0.0 | 0.00 | 0.00 | 0.00 | 61 | 1013.1 |
| 20260504021520 | 45 | 298 | 0.0 | 0.0 | 0.00 | 0.00 | 0.00 | 61 | 1013.0 |
| 20260504021008 | 45 | 298 | 0.0 | 0.0 | 0.00 | 0.00 | 0.00 | 61 | 1012.9 |
| 20260504020508 | 45 | 298 | 0.0 | 0.0 | 0.00 | 0.00 | 0.00 | 59 | 1013.0 |
| 20260504020027 | 45 | 298 | 0.0 | 0.0 | 0.00 | 0.00 | 0.00 | 57 | 1012.9 |
| 20260504015504 | 46 | 298 | 0.0 | 0.0 | 0.00 | 0.00 | 0.00 | 57 | 1012.9 |
| 20260504015004 | 46 | 298 | 0.0 | 0.0 | 0.00 | 0.00 | 0.00 | 56 | 1012.9 |
| 20260504014512 | 47 | 298 | 0.0 | 0.0 | 0.00 | 0.00 | 0.00 | 56 | 1012.9 |
| 20260504014004 | 47 | 298 | 0.0 | 0.0 | 0.00 | 0.00 | 0.00 | 56 | 1013.0 |
| 20260504013504 | 47 | 298 | 0.0 | 0.0 | 0.00 | 0.00 | 0.00 | 53 | 1013.0 |
| 20260504013019 | 47 | 298 | 0.0 | 0.0 | 0.00 | 0.00 | 0.00 | 52 | 1012.9 |
| 20260504012509 | 48 | 298 | 0.0 | 0.0 | 0.00 | 0.00 | 0.00 | 50 | 1012.8 |
| 20260504012006 | 48 | 298 | 0.0 | 0.0 | 0.00 | 0.00 | 0.00 | 49 | 1012.8 |
| 20260504011519 | 48 | 298 | 0.0 | 0.0 | 0.00 | 0.00 | 0.00 | 50 | 1012.7 |
| 20260504011009 | 48 | 298 | 0.0 | 0.0 | 0.00 | 0.00 | 0.00 | 50 | 1012.6 |
| 20260504010514 | 49 | 298 | 0.0 | 0.0 | 0.00 | 0.00 | 0.00 | 49 | 1012.4 |
| 20260504010026 | 49 | 298 | 0.0 | 0.0 | 0.00 | 0.00 | 0.00 | 49 | 1012.4 |
| 20260504005504 | 49 | 298 | 0.0 | 0.0 | 0.00 | 0.00 | 0.00 | 49 | 1012.4 |
| 20260504005005 | 50 | 298 | 0.0 | 0.0 | 0.00 | 0.00 | 0.00 | 51 | 1012.3 |
| 20260504004514 | 50 | 298 | 0.0 | 0.0 | 0.00 | 0.00 | 0.00 | 53 | 1012.2 |
| 20260504004009 | 50 | 298 | 0.0 | 0.0 | 0.00 | 0.00 | 0.00 | 54 | 1012.1 |
| 20260504003509 | 51 | 298 | 0.0 | 0.0 | 0.00 | 0.00 | 0.00 | 50 | 1012.1 |
| 20260504003018 | 52 | 298 | 0.0 | 0.0 | 0.00 | 0.00 | 0.00 | 48 | 1011.9 |
| 20260504002508 | 52 | 298 | 0.0 | 0.0 | 0.00 | 0.00 | 0.00 | 47 | 1011.9 |
| 20260504002007 | 52 | 298 | 0.0 | 0.0 | 0.00 | 0.00 | 0.00 | 41 | 1011.9 |
| 20260504001525 | 53 | 298 | 0.0 | 0.0 | 0.00 | 0.00 | 0.00 | 38 | 1011.9 |
| 20260504001011 | 53 | 298 | 0.0 | 0.0 | 0.00 | 0.00 | 0.00 | 36 | 1011.8 |
| 20260504000514 | 53 | 298 | 0.0 | 0.0 | 0.00 | 0.00 | 0.00 | 35 | 1011.8 |
| 20260504000009 | 54 | 298 | 0.0 | 0.0 | 0.00 | 0.00 | 0.00 | 36 | 1011.7 |
| 20260503235507 | 54 | 298 | 0.0 | 0.0 | 0.00 | 0.00 | 0.00 | 34 | 1011.6 |
| 20260503235006 | 55 | 298 | 0.0 | 0.0 | 0.00 | 0.00 | 0.00 | 33 | 1011.7 |
| 20260503234514 | 55 | 298 | 0.0 | 0.0 | 0.00 | 0.00 | 0.00 | 35 | 1011.6 |
| 20260503234008 | 55 | 298 | 0.0 | 2.0 | 0.00 | 0.00 | 0.00 | 33 | 1011.5 |
| 20260503233508 | 55 | 301 | 0.0 | 2.0 | 0.00 | 0.00 | 0.00 | 32 | 1011.4 |
| 20260503233021 | 56 | 316 | 0.0 | 1.0 | 0.00 | 0.00 | 0.00 | 31 | 1011.3 |
| 20260503232509 | 56 | 294 | 0.0 | 4.0 | 0.00 | 0.00 | 0.00 | 31 | 1011.2 |
| 20260503232009 | 56 | 303 | 1.0 | 4.0 | 0.00 | 0.00 | 0.00 | 30 | 1011.2 |
| 20260503231524 | 57 | 335 | 0.0 | 7.0 | 0.00 | 0.00 | 0.00 | 31 | 1011.1 |
| 20260503231009 | 57 | 328 | 1.0 | 7.0 | 0.00 | 0.00 | 0.00 | 30 | 1011.1 |
| 20260503230509 | 57 | 352 | 1.0 | 5.0 | 0.00 | 0.00 | 0.00 | 30 | 1011.1 |
| 20260503230010 | 57 | 281 | 1.0 | 4.0 | 0.00 | 0.00 | 0.00 | 30 | 1011.0 |
| 20260503225506 | 57 | 325 | 1.0 | 8.0 | 0.00 | 0.00 | 0.00 | 31 | 1010.9 |
| 20260503225004 | 57 | 336 | 2.0 | 8.0 | 0.00 | 0.00 | 0.00 | 28 | 1011.0 |
| 20260503224517 | 57 | 315 | 2.0 | 5.0 | 0.00 | 0.00 | 0.00 | 30 | 1010.9 |
| 20260503224011 | 57 | 340 | 0.0 | 8.0 | 0.00 | 0.00 | 0.00 | 30 | 1010.9 |
| 20260503223511 | 57 | 326 | 0.0 | 8.0 | 0.00 | 0.00 | 0.00 | 30 | 1010.8 |
| 20260503223024 | 57 | 321 | 0.0 | 8.0 | 0.00 | 0.00 | 0.00 | 31 | 1010.9 |
| 20260503222510 | 57 | 292 | 3.0 | 7.0 | 0.00 | 0.00 | 0.00 | 30 | 1010.8 |
| 20260503222009 | 57 | 350 | 2.0 | 6.0 | 0.00 | 0.00 | 0.00 | 30 | 1010.9 |
| 20260503221527 | 57 | 314 | 1.0 | 7.0 | 0.00 | 0.00 | 0.00 | 30 | 1010.7 |
| 20260503221010 | 57 | 321 | 3.0 | 7.0 | 0.00 | 0.00 | 0.00 | 30 | 1010.8 |
| 20260503220510 | 57 | 321 | 1.0 | 6.0 | 0.00 | 0.00 | 0.00 | 30 | 1010.9 |
| 20260503220014 | 57 | 323 | 2.0 | 8.0 | 0.00 | 0.00 | 0.00 | 29 | 1010.9 |
| 20260503215506 | 57 | 304 | 2.0 | 8.0 | 0.00 | 0.00 | 0.00 | 30 | 1010.9 |
| 20260503215011 | 57 | 317 | 2.0 | 9.0 | 0.00 | 0.00 | 0.00 | 31 | 1010.9 |
| 20260503214523 | 57 | 331 | 4.0 | 11.0 | 0.00 | 0.00 | 0.00 | 29 | 1010.9 |
| 20260503214007 | 57 | 352 | 5.0 | 11.0 | 0.00 | 0.00 | 0.00 | 30 | 1010.7 |
| 20260503213508 | 57 | 288 | 5.0 | 11.0 | 0.00 | 0.00 | 0.00 | 30 | 1010.7 |
| 20260503213023 | 57 | 352 | 5.0 | 11.0 | 0.00 | 0.00 | 0.00 | 30 | 1010.7 |
| 20260503212509 | 57 | 328 | 3.0 | 11.0 | 0.00 | 0.00 | 0.00 | 31 | 1010.6 |
| 20260503212010 | 57 | 284 | 5.0 | 11.0 | 0.00 | 0.00 | 0.00 | 30 | 1010.5 |
| 20260503211533 | 57 | 340 | 4.0 | 10.0 | 0.00 | 0.00 | 0.00 | 31 | 1010.6 |
| 20260503211011 | 57 | 298 | 5.0 | 13.0 | 0.00 | 0.00 | 0.00 | 31 | 1010.4 |
| 20260503210506 | 57 | 317 | 4.0 | 13.0 | 0.00 | 0.00 | 0.00 | 32 | 1010.4 |
| 20260503210018 | 57 | 303 | 4.0 | 10.0 | 0.00 | 0.00 | 0.00 | 31 | 1010.3 |
| 20260503205507 | 57 | 9 | 3.0 | 11.0 | 0.00 | 0.00 | 0.00 | 33 | 1010.3 |